Time;durP1;ratioP1;P1;durP2;ratioP2;P2;SDS_P1;SDS_P2;PMS_P1;PMS_P2;Temp;Humidity;BMP_temperature;BMP_pressure;BME280_temperature;BME280_humidity;BME280_pressure;Samples;Min_cycle;Max_cycle;Signal;HPM_P1;HPM_P2
2022/03/26 00:01:50;;;;;;;54.90;28.65;;;;;;;12.89;41.08;102159.38;5079291;28;20044;-56
2022/03/26 00:04:18;;;;;;;51.42;28.98;;;;;;;13.01;40.97;102168.06;5097217;28;20048;-60
2022/03/26 00:06:45;;;;;;;53.25;29.80;;;;;;;12.75;41.34;102172.25;5095372;28;20055;-57
2022/03/26 00:09:13;;;;;;;55.47;30.27;;;;;;;12.75;41.54;102166.72;5095204;28;20063;-58
2022/03/26 00:11:40;;;;;;;64.88;29.48;;;;;;;12.68;41.64;102167.06;5096684;28;20052;-59
2022/03/26 00:14:07;;;;;;;56.72;30.55;;;;;;;12.71;41.47;102165.66;5085066;28;20060;-58
2022/03/26 00:16:35;;;;;;;57.42;31.48;;;;;;;12.82;41.44;102164.44;5075564;28;20064;-58
2022/03/26 00:19:03;;;;;;;51.58;29.50;;;;;;;12.44;42.35;102161.50;5074850;28;20057;-55
2022/03/26 00:21:32;;;;;;;50.55;30.30;;;;;;;12.51;42.18;102161.16;5075321;28;20063;-58
2022/03/26 00:23:59;;;;;;;55.78;29.10;;;;;;;12.57;41.99;102164.72;5076642;28;20048;-59
2022/03/26 00:26:26;;;;;;;59.88;30.40;;;;;;;12.66;41.80;102160.19;5075288;28;20056;-57
2022/03/26 00:28:54;;;;;;;56.08;31.98;;;;;;;12.72;41.75;102157.06;5076043;28;20040;-58
2022/03/26 00:31:21;;;;;;;56.42;29.88;;;;;;;12.78;41.74;102157.84;5076415;28;20049;-58
2022/03/26 00:33:49;;;;;;;58.67;31.38;;;;;;;12.54;42.05;102160.56;5074567;28;20056;-61
2022/03/26 00:36:16;;;;;;;53.58;29.85;;;;;;;12.46;42.59;102159.25;5076209;28;20395;-62
2022/03/26 00:38:44;;;;;;;56.90;31.73;;;;;;;12.48;42.83;102165.31;5074593;28;20048;-63
2022/03/26 00:41:11;;;;;;;58.95;31.50;;;;;;;12.28;43.12;102161.91;5080433;28;20506;-63
2022/03/26 00:43:39;;;;;;;55.90;31.35;;;;;;;12.48;42.72;102165.31;5095962;28;20060;-62
2022/03/26 00:46:06;;;;;;;53.33;29.48;;;;;;;12.45;42.55;102162.31;5096408;28;20086;-63
2022/03/26 00:48:33;;;;;;;54.38;31.38;;;;;;;12.42;42.75;102160.97;5096032;28;20055;-61
2022/03/26 00:51:01;;;;;;;55.80;31.75;;;;;;;12.19;43.22;102164.47;5096393;28;20067;-62
2022/03/26 00:53:28;;;;;;;70.63;32.53;;;;;;;11.97;43.67;102158.59;5096055;28;20052;-62
2022/03/26 00:55:55;;;;;;;55.28;31.60;;;;;;;11.98;43.85;102168.53;5096278;28;20048;-61
2022/03/26 00:58:23;;;;;;;56.25;30.23;;;;;;;12.20;43.34;102174.41;5096160;28;20044;-62
2022/03/26 01:00:50;;;;;;;48.42;30.60;;;;;;;12.02;43.75;102166.84;5096089;28;20419;-62
2022/03/26 01:03:18;;;;;;;60.60;31.23;;;;;;;11.80;44.08;102171.16;5078205;28;20543;-62
2022/03/26 01:05:46;;;;;;;63.10;31.52;;;;;;;11.92;43.68;102168.84;5094496;28;20060;-62
2022/03/26 01:08:13;;;;;;;53.72;30.75;;;;;;;11.89;44.05;102163.91;5095379;28;20048;-62
2022/03/26 01:10:41;;;;;;;59.45;31.77;;;;;;;12.07;43.75;102154.91;5096004;28;20056;-63
2022/03/26 01:13:09;;;;;;;58.78;30.75;;;;;;;12.24;43.44;102156.16;5094825;28;20409;-63
2022/03/26 01:15:36;;;;;;;61.47;31.00;;;;;;;12.00;43.94;102157.19;5075644;28;20055;-63
2022/03/26 01:18:04;;;;;;;68.72;32.42;;;;;;;11.79;44.27;102164.78;5075146;28;20041;-62
2022/03/26 01:20:32;;;;;;;55.55;32.00;;;;;;;11.79;44.34;102162.03;5074328;28;20681;-62
2022/03/26 01:22:59;;;;;;;51.35;29.55;;;;;;;11.80;44.35;102160.09;5075412;28;20056;-62
2022/03/26 01:25:27;;;;;;;54.05;30.60;;;;;;;11.82;44.41;102157.88;5075549;28;20052;-62
2022/03/26 01:27:54;;;;;;;54.78;30.90;;;;;;;11.84;44.36;102155.63;5073870;28;20470;-62
2022/03/26 01:30:21;;;;;;;54.78;31.73;;;;;;;11.98;44.12;102146.44;5075433;28;20062;-62
2022/03/26 01:32:49;;;;;;;58.92;31.02;;;;;;;12.10;44.06;102149.63;5075436;28;20068;-62
2022/03/26 01:35:16;;;;;;;55.05;30.08;;;;;;;11.84;44.17;102158.41;5073874;28;20057;-63
2022/03/26 01:37:43;;;;;;;55.65;30.05;;;;;;;11.67;44.87;102147.75;5074414;28;20049;-61
2022/03/26 01:40:11;;;;;;;59.67;30.20;;;;;;;11.70;44.82;102132.56;5075223;28;20068;-62
2022/03/26 01:42:38;;;;;;;49.45;30.55;;;;;;;11.73;44.88;102146.63;5092947;28;20063;-61
2022/03/26 01:45:10;;;;;;;62.10;31.98;;;;;;;11.65;44.73;102138.94;5094105;28;20059;-62
2022/03/26 01:47:38;;;;;;;60.65;31.35;;;;;;;11.81;44.43;102136.91;5093840;28;20052;-61
2022/03/26 01:50:05;;;;;;;52.17;31.00;;;;;;;11.72;44.74;102136.69;5095481;28;20059;-62
2022/03/26 01:52:32;;;;;;;60.55;30.70;;;;;;;11.58;45.20;102132.03;5095186;28;20052;-61
2022/03/26 01:55:00;;;;;;;55.33;29.63;;;;;;;11.63;45.01;102143.06;5095310;28;20380;-61
2022/03/26 01:57:28;;;;;;;51.30;29.33;;;;;;;11.79;44.71;102134.44;5095060;28;20519;-61
2022/03/26 01:59:55;;;;;;;60.10;30.40;;;;;;;11.38;45.50;102131.06;5094834;28;20052;-61
2022/03/26 02:02:23;;;;;;;63.58;29.92;;;;;;;11.17;45.94;102135.06;5094989;28;20431;-62
2022/03/26 02:04:51;;;;;;;50.42;28.77;;;;;;;11.23;46.03;102136.66;5093977;28;20427;-61
2022/03/26 02:07:19;;;;;;;57.00;30.73;;;;;;;11.53;45.43;102123.81;5094940;28;20055;-61
2022/03/26 02:09:48;;;;;;;56.47;30.58;;;;;;;11.28;45.72;102120.09;5095043;28;20055;-62
2022/03/26 02:12:26;;;;;;;55.40;29.55;;;;;;;11.38;45.56;102122.78;5093738;28;20865;-61
2022/03/26 02:14:55;;;;;;;55.20;30.13;;;;;;;11.12;46.18;102129.53;5079603;28;20055;-61
2022/03/26 02:17:22;;;;;;;51.20;29.80;;;;;;;11.21;46.00;102133.34;5074221;28;20063;-63
2022/03/26 02:20:00;;;;;;;57.83;30.50;;;;;;;11.21;45.91;102132.53;5073542;28;20051;-61
2022/03/26 02:22:28;;;;;;;55.72;30.88;;;;;;;11.25;45.94;102126.19;5056659;28;20068;-62
2022/03/26 02:24:55;;;;;;;57.78;30.92;;;;;;;11.32;45.91;102126.69;5074731;28;20064;-58
2022/03/26 02:27:25;;;;;;;58.33;31.17;;;;;;;11.31;45.79;102129.75;5074774;28;20063;-58
2022/03/26 02:29:53;;;;;;;55.22;31.70;;;;;;;11.40;45.55;102121.69;5074429;28;20522;-63
2022/03/26 02:32:22;;;;;;;60.47;30.85;;;;;;;11.47;45.48;102125.78;5074476;28;20056;-62
2022/03/26 02:34:50;;;;;;;55.78;29.75;;;;;;;11.60;45.28;102116.88;5074737;28;20049;-54
2022/03/26 02:37:33;;;;;;;58.70;31.05;;;;;;;11.22;45.93;102118.47;5074490;28;20056;-57
2022/03/26 02:40:04;;;;;;;53.65;30.60;;;;;;;11.43;45.82;102113.66;5074431;28;20636;-58
2022/03/26 02:42:32;;;;;;;59.78;29.98;;;;;;;11.13;46.09;102117.41;5089761;28;20147;-57
2022/03/26 02:45:00;;;;;;;52.58;30.08;;;;;;;11.29;46.12;102121.75;5094752;28;20522;-59
2022/03/26 02:47:27;;;;;;;54.20;30.10;;;;;;;11.35;45.89;102108.72;5094736;28;20158;-58
2022/03/26 02:49:55;;;;;;;53.15;30.25;;;;;;;11.19;46.36;102112.72;5078860;28;20045;-60
2022/03/26 02:52:23;;;;;;;54.90;30.02;;;;;;;11.45;45.77;102107.84;5074344;28;20052;-58
2022/03/26 02:54:52;;;;;;;51.65;28.73;;;;;;;11.24;46.11;102109.91;5073347;28;20056;-58
2022/03/26 02:57:19;;;;;;;54.05;31.02;;;;;;;11.29;46.04;102112.66;5077017;28;20059;-59
2022/03/26 02:59:47;;;;;;;59.95;31.27;;;;;;;11.49;45.55;102109.75;5078076;28;20044;-60
2022/03/26 03:02:14;;;;;;;55.30;30.45;;;;;;;11.34;45.79;102109.84;5077681;28;20060;-56
2022/03/26 03:04:42;;;;;;;59.08;31.67;;;;;;;11.42;45.68;102111.19;5077962;28;20057;-57
2022/03/26 03:07:10;;;;;;;56.88;30.98;;;;;;;11.59;45.36;102111.63;5077895;28;20411;-58
2022/03/26 03:09:37;;;;;;;55.55;31.52;;;;;;;11.65;44.83;102113.25;5075623;28;20052;-59
2022/03/26 03:12:06;;;;;;;53.80;30.08;;;;;;;11.03;46.29;102116.63;5077785;28;20063;-58
2022/03/26 03:14:35;;;;;;;67.13;30.38;;;;;;;10.84;46.96;102112.84;5076717;28;20056;-58
2022/03/26 03:17:02;;;;;;;62.42;30.88;;;;;;;11.00;46.42;102112.50;5077880;28;20052;-58
2022/03/26 03:19:29;;;;;;;52.53;31.48;;;;;;;11.27;46.13;102112.09;5077403;28;20049;-62
2022/03/26 03:21:57;;;;;;;53.55;29.85;;;;;;;11.29;45.84;102109.88;5077512;28;20056;-61
2022/03/26 03:24:24;;;;;;;54.15;30.85;;;;;;;11.03;46.40;102113.88;5077766;28;20380;-60
2022/03/26 03:26:51;;;;;;;55.92;31.02;;;;;;;11.12;46.12;102117.69;5077636;28;20071;-59
2022/03/26 03:29:19;;;;;;;55.33;30.70;;;;;;;11.08;46.49;102116.59;5077082;28;20507;-58
2022/03/26 03:31:48;;;;;;;53.58;30.77;;;;;;;11.18;46.23;102114.63;5076315;28;20052;-60
2022/03/26 03:34:15;;;;;;;53.13;30.73;;;;;;;11.29;46.08;102113.47;5076311;28;20502;-59
2022/03/26 03:36:43;;;;;;;55.53;30.92;;;;;;;10.91;46.74;102116.94;5077419;28;20056;-59
2022/03/26 03:39:10;;;;;;;58.95;31.48;;;;;;;10.61;47.59;102118.97;5077385;28;20399;-59
2022/03/26 03:41:38;;;;;;;55.65;31.60;;;;;;;10.72;47.10;102117.84;5085337;28;20495;-63
2022/03/26 03:44:06;;;;;;;60.28;32.05;;;;;;;10.45;47.97;102115.44;5097499;28;20071;-62
2022/03/26 03:46:34;;;;;;;56.67;31.85;;;;;;;10.73;47.58;102122.25;5097612;28;20055;-58
2022/03/26 03:49:03;;;;;;;60.78;32.42;;;;;;;10.84;47.22;102118.38;5095432;28;20052;-55
2022/03/26 03:51:30;;;;;;;60.80;32.38;;;;;;;10.75;47.30;102120.88;5078692;28;20059;-58
2022/03/26 03:53:57;;;;;;;54.88;31.25;;;;;;;10.92;47.13;102128.81;5097305;28;20059;-58
2022/03/26 03:56:25;;;;;;;56.55;30.95;;;;;;;11.17;46.24;102118.50;5097118;28;20052;-55
2022/03/26 03:58:52;;;;;;;60.38;30.65;;;;;;;10.92;46.96;102118.59;5097263;28;20048;-57
2022/03/26 04:01:19;;;;;;;56.20;30.77;;;;;;;10.97;46.99;102112.25;5097350;28;20427;-57
2022/03/26 04:03:47;;;;;;;53.25;30.25;;;;;;;10.73;47.44;102120.34;5097094;28;20055;-60
2022/03/26 04:06:15;;;;;;;59.22;30.92;;;;;;;10.76;47.42;102125.28;5097032;28;20051;-57
2022/03/26 04:08:43;;;;;;;54.88;30.25;;;;;;;10.80;47.07;102122.78;5096231;28;20056;-56
2022/03/26 04:11:10;;;;;;;60.42;32.03;;;;;;;10.88;46.80;102136.00;5096477;28;20067;-61
2022/03/26 04:13:37;;;;;;;59.20;30.95;;;;;;;10.96;46.98;102133.50;5092095;28;20059;-61
2022/03/26 04:16:05;;;;;;;59.47;31.30;;;;;;;10.82;47.28;102132.44;5076714;28;20056;-58
2022/03/26 04:18:32;;;;;;;59.35;30.23;;;;;;;10.86;47.04;102138.22;5076402;28;20569;-58
2022/03/26 04:21:00;;;;;;;60.92;31.33;;;;;;;10.56;47.61;102128.09;5076519;28;20040;-56
2022/03/26 04:23:27;;;;;;;67.78;31.88;;;;;;;10.74;47.34;102134.94;5076401;28;20044;-59
2022/03/26 04:25:54;;;;;;;54.28;30.77;;;;;;;10.42;48.25;102126.19;5076412;28;20075;-58
2022/03/26 04:28:22;;;;;;;53.70;29.98;;;;;;;10.51;47.89;102130.88;5076313;28;20480;-58
2022/03/26 04:30:50;;;;;;;64.55;31.20;;;;;;;10.77;47.40;102134.38;5075689;28;20492;-57
2022/03/26 04:33:17;;;;;;;51.72;30.35;;;;;;;10.56;47.31;102128.09;5074503;28;20052;-57
2022/03/26 04:35:44;;;;;;;62.28;30.40;;;;;;;10.57;47.80;102139.91;5076258;28;20079;-57
2022/03/26 04:38:11;;;;;;;57.53;30.40;;;;;;;10.76;47.51;102133.53;5074861;28;20068;-61
2022/03/26 04:40:39;;;;;;;55.80;31.40;;;;;;;10.88;47.12;102136.81;5075693;28;20053;-62
2022/03/26 04:43:06;;;;;;;58.53;31.27;;;;;;;10.74;47.22;102137.69;5096484;28;20403;-58
2022/03/26 04:45:33;;;;;;;52.60;31.40;;;;;;;10.30;48.30;102147.69;5096233;28;20548;-58
2022/03/26 04:48:01;;;;;;;59.78;32.65;;;;;;;10.17;48.71;102138.06;5096190;28;20055;-58
2022/03/26 04:50:28;;;;;;;55.53;31.23;;;;;;;10.29;48.50;102135.03;5095954;28;20044;-57
2022/03/26 04:52:56;;;;;;;62.58;31.40;;;;;;;10.41;48.05;102141.88;5096050;28;20158;-59
2022/03/26 04:55:23;;;;;;;53.42;30.10;;;;;;;10.18;48.62;102131.47;5096334;28;20056;-58
2022/03/26 04:57:53;;;;;;;61.90;32.10;;;;;;;10.07;49.19;102127.84;5077767;28;20056;-59
2022/03/26 05:00:22;;;;;;;56.40;30.45;;;;;;;9.95;49.42;102131.97;5095991;28;20052;-57
2022/03/26 05:02:49;;;;;;;58.63;30.27;;;;;;;10.13;49.03;102131.44;5095913;28;20055;-58
2022/03/26 05:05:17;;;;;;;55.97;30.00;;;;;;;9.97;49.33;102127.84;5096255;28;20044;-59
2022/03/26 05:07:47;;;;;;;54.28;30.00;;;;;;;10.33;48.70;102136.13;5095901;28;20048;-57
2022/03/26 05:10:29;;;;;;;57.90;32.10;;;;;;;10.23;48.64;102135.00;5095627;28;20503;-58
2022/03/26 05:13:00;;;;;;;53.83;30.17;;;;;;;10.19;48.54;102141.34;5094432;28;20048;-59
2022/03/26 05:15:28;;;;;;;60.67;29.65;;;;;;;10.02;49.13;102140.78;5055837;28;20408;-58
2022/03/26 05:17:56;;;;;;;57.25;29.58;;;;;;;10.37;48.67;102148.22;5055485;28;20049;-57
2022/03/26 05:20:23;;;;;;;52.72;30.30;;;;;;;10.43;48.25;102138.84;5055419;28;20053;-56
2022/03/26 05:22:52;;;;;;;58.83;29.70;;;;;;;10.23;48.30;102147.97;5055251;28;20059;-56
2022/03/26 05:25:20;;;;;;;55.55;30.48;;;;;;;10.13;48.82;102148.78;5055615;28;20051;-55
2022/03/26 05:27:49;;;;;;;56.28;30.02;;;;;;;10.20;48.56;102141.09;5055360;28;20049;-60
2022/03/26 05:30:18;;;;;;;57.20;29.35;;;;;;;9.99;49.32;102142.16;5072843;28;20056;-56
2022/03/26 05:32:46;;;;;;;55.38;30.27;;;;;;;10.32;48.55;102142.72;5075296;28;20373;-59
2022/03/26 05:35:16;;;;;;;64.00;32.05;;;;;;;10.43;48.23;102147.94;5075352;28;20059;-60
2022/03/26 05:37:45;;;;;;;56.88;30.67;;;;;;;10.26;48.91;102155.69;5075373;28;20052;-59
2022/03/26 05:40:15;;;;;;;52.22;30.40;;;;;;;10.41;48.45;102144.63;5075303;28;20052;-58
2022/03/26 05:42:42;;;;;;;;;;;;;;;10.51;48.09;102161.16;5094085;28;20056;-57
2022/03/26 05:45:10;;;;;;;58.22;29.85;;;;;;;10.34;48.49;102162.56;5095167;28;19920;-58
2022/03/26 05:47:38;;;;;;;59.90;30.60;;;;;;;9.91;49.44;102161.97;5093776;28;20059;-59
2022/03/26 05:50:08;;;;;;;51.88;31.38;;;;;;;10.03;48.96;102175.47;5095009;28;20048;-58
2022/03/26 05:52:35;;;;;;;56.45;31.55;;;;;;;9.73;50.05;102175.41;5093958;28;20086;-58
2022/03/26 05:55:03;;;;;;;55.60;30.63;;;;;;;9.76;50.17;102172.13;5095002;28;20051;-58
2022/03/26 05:57:31;;;;;;;59.30;31.08;;;;;;;9.58;50.66;102167.97;5095343;28;20052;-57
2022/03/26 05:59:58;;;;;;;55.30;31.48;;;;;;;9.94;50.04;102171.59;5095036;28;20048;-57
2022/03/26 06:02:25;;;;;;;53.28;31.15;;;;;;;9.97;49.64;102176.56;5094920;28;20047;-56
2022/03/26 06:04:53;;;;;;;54.80;29.88;;;;;;;9.93;49.84;102175.47;5095333;28;20063;-59
2022/03/26 06:07:20;;;;;;;54.78;31.90;;;;;;;10.13;49.26;102181.00;5095093;28;20051;-56
2022/03/26 06:09:48;;;;;;;53.63;31.27;;;;;;;10.36;48.65;102171.34;5094377;28;20393;-52
2022/03/26 06:12:15;;;;;;;59.00;31.05;;;;;;;10.11;49.02;102174.97;5094354;28;20063;-57
2022/03/26 06:14:43;;;;;;;62.30;32.20;;;;;;;10.23;49.08;102170.00;5079888;28;20056;-54
2022/03/26 06:17:10;;;;;;;56.47;31.83;;;;;;;9.99;49.12;102166.09;5057118;28;20499;-58
2022/03/26 06:19:38;;;;;;;55.55;30.38;;;;;;;9.98;49.50;102180.97;5074733;28;20044;-58
2022/03/26 06:22:06;;;;;;;58.83;31.13;;;;;;;10.29;48.59;102173.59;5074663;28;20060;-57
2022/03/26 06:24:34;;;;;;;65.20;31.48;;;;;;;9.97;49.39;102185.63;5074727;28;20052;-61
2022/03/26 06:27:02;;;;;;;55.92;31.50;;;;;;;9.84;49.58;102188.09;5074201;28;20074;-61
2022/03/26 06:29:30;;;;;;;55.28;31.88;;;;;;;9.80;49.82;102187.81;5072632;28;20431;-62
2022/03/26 06:31:57;;;;;;;60.03;31.15;;;;;;;10.17;48.82;102196.72;5076407;28;20068;-62
2022/03/26 06:34:25;;;;;;;54.42;31.42;;;;;;;9.93;49.58;102192.81;5077295;28;20052;-61
2022/03/26 06:36:52;;;;;;;58.00;32.17;;;;;;;10.07;49.20;102191.19;5078253;28;20052;-61
2022/03/26 06:39:20;;;;;;;61.70;32.20;;;;;;;10.03;49.36;102195.56;5078824;28;20053;-61
2022/03/26 06:41:47;;;;;;;52.85;31.38;;;;;;;10.01;49.12;102196.91;5088913;28;20044;-60
2022/03/26 06:44:14;;;;;;;55.08;32.88;;;;;;;10.11;48.79;102194.25;5097365;28;20060;-62
2022/03/26 06:46:42;;;;;;;55.60;33.42;;;;;;;10.00;49.37;102201.63;5098878;28;20511;-61
2022/03/26 06:49:12;;;;;;;53.85;31.80;;;;;;;9.87;49.73;102206.81;5098783;28;20047;-61
2022/03/26 06:51:39;;;;;;;57.33;32.33;;;;;;;9.87;49.80;102212.31;5098147;28;20381;-64
2022/03/26 06:54:06;;;;;;;56.90;32.53;;;;;;;10.20;49.04;102211.84;5098490;28;20056;-62
2022/03/26 06:56:34;;;;;;;66.05;31.92;;;;;;;10.07;49.09;102224.22;5098588;28;20063;-62
2022/03/26 06:59:01;;;;;;;59.33;33.53;;;;;;;9.75;49.71;102218.06;5098606;28;20055;-62
2022/03/26 07:01:28;;;;;;;61.25;32.22;;;;;;;10.17;49.21;102220.66;5098015;28;20051;-62
2022/03/26 07:03:59;;;;;;;58.30;32.55;;;;;;;10.11;49.01;102219.81;5098365;28;20483;-62
2022/03/26 07:06:26;;;;;;;58.35;33.67;;;;;;;9.95;49.45;102220.06;5098249;28;20051;-62
2022/03/26 07:08:54;;;;;;;60.42;33.58;;;;;;;9.90;49.33;102233.81;5098286;28;20056;-62
2022/03/26 07:11:21;;;;;;;54.85;32.55;;;;;;;9.96;49.27;102229.94;5096027;28;20503;-62
2022/03/26 07:13:49;;;;;;;58.75;31.83;;;;;;;10.02;49.36;102226.94;5089999;28;20055;-61
2022/03/26 07:16:16;;;;;;;70.72;34.35;;;;;;;10.20;48.76;102233.88;5077691;28;20071;-61
2022/03/26 07:18:44;;;;;;;61.63;33.50;;;;;;;10.45;48.36;102231.13;5077497;28;20530;-61
2022/03/26 07:21:11;;;;;;;59.97;34.10;;;;;;;10.45;48.13;102246.81;5077054;28;20404;-61
2022/03/26 07:23:39;;;;;;;58.47;33.17;;;;;;;10.24;48.40;102246.00;5076248;28;20053;-61
2022/03/26 07:26:06;;;;;;;61.33;32.95;;;;;;;9.88;49.33;102245.09;5077581;28;20534;-61
2022/03/26 07:28:34;;;;;;;58.47;34.53;;;;;;;9.99;49.37;102259.69;5076099;28;20060;-60
2022/03/26 07:31:01;;;;;;;58.70;34.83;;;;;;;10.03;49.15;102249.78;5077171;28;20400;-61
2022/03/26 07:33:29;;;;;;;60.47;33.75;;;;;;;10.27;48.63;102250.94;5077362;28;20044;-62
2022/03/26 07:35:56;;;;;;;61.38;33.60;;;;;;;10.07;49.16;102250.91;5075206;28;20070;-62
2022/03/26 07:38:23;;;;;;;57.28;33.60;;;;;;;10.25;48.48;102255.94;5075892;28;20063;-62
2022/03/26 07:40:52;;;;;;;59.60;34.42;;;;;;;10.21;48.26;102257.56;5079575;28;20056;-61
2022/03/26 07:43:19;;;;;;;60.60;32.83;;;;;;;10.49;47.54;102264.47;5096332;28;20157;-61
2022/03/26 07:45:46;;;;;;;55.53;32.15;;;;;;;10.46;47.25;102262.28;5096615;28;20154;-62
2022/03/26 07:48:14;;;;;;;55.65;30.30;;;;;;;10.52;47.22;102272.19;5078610;28;20060;-62
2022/03/26 07:50:41;;;;;;;53.33;31.38;;;;;;;10.55;47.14;102266.13;5097346;28;20044;-62
2022/03/26 07:53:09;;;;;;;56.42;32.45;;;;;;;10.46;47.11;102268.59;5097264;28;20403;-60
2022/03/26 07:55:37;;;;;;;56.58;32.45;;;;;;;10.57;46.78;102264.75;5096950;28;20528;-62
2022/03/26 07:58:04;;;;;;;56.78;32.80;;;;;;;10.43;46.81;102265.56;5097254;28;20048;-62
2022/03/26 08:00:31;;;;;;;60.15;31.80;;;;;;;10.91;46.04;102260.28;5096601;28;20059;-62
2022/03/26 08:02:59;;;;;;;66.25;31.92;;;;;;;11.15;45.57;102266.03;5097022;28;20075;-61
2022/03/26 08:05:27;;;;;;;57.83;32.33;;;;;;;11.29;45.05;102265.19;5097278;28;20531;-63
2022/03/26 08:07:54;;;;;;;58.13;32.13;;;;;;;11.28;45.15;102257.16;5097020;28;20051;-61
2022/03/26 08:10:21;;;;;;;60.92;33.42;;;;;;;11.15;44.98;102263.28;5097323;28;20047;-62
2022/03/26 08:12:48;;;;;;;57.88;32.88;;;;;;;10.97;45.55;102263.88;5096697;28;20048;-61
2022/03/26 08:15:16;;;;;;;72.47;32.47;;;;;;;11.34;44.70;102262.41;5078195;28;20057;-62
2022/03/26 08:17:43;;;;;;;57.67;32.40;;;;;;;11.35;44.49;102257.69;5076778;28;20754;-62
2022/03/26 08:20:11;;;;;;;57.70;32.60;;;;;;;11.42;44.42;102257.41;5075210;28;20059;-62
2022/03/26 08:22:41;;;;;;;62.85;33.33;;;;;;;11.54;44.32;102272.53;5076510;28;20049;-64
2022/03/26 08:26:19;;;;;;;60.55;33.92;;;;;;;11.41;44.59;102270.38;5076939;28;20057;-63
2022/03/26 08:28:04;;;;;;;62.75;32.88;;;;;;;11.68;44.01;102261.75;5076630;28;20060;-61
2022/03/26 08:30:32;;;;;;;60.55;33.20;;;;;;;11.63;44.31;102265.31;5076419;28;20072;-62
2022/03/26 08:33:01;;;;;;;55.47;32.90;;;;;;;11.66;43.97;102259.28;5058027;28;20048;-63
2022/03/26 08:35:41;;;;;;;57.67;31.42;;;;;;;11.83;43.41;102258.91;5076099;28;20132;-62
2022/03/26 08:38:08;;;;;;;58.65;32.53;;;;;;;11.99;42.97;102263.25;5074230;28;20123;-62
2022/03/26 08:40:36;;;;;;;64.13;32.30;;;;;;;11.97;42.81;102259.94;5076787;28;20053;-56
2022/03/26 08:43:06;;;;;;;59.00;31.48;;;;;;;12.04;42.71;102265.97;5096468;28;20052;-59
2022/03/26 08:45:35;;;;;;;55.47;32.30;;;;;;;12.23;42.29;102256.72;5096081;28;20083;-59
2022/03/26 08:48:03;;;;;;;55.28;32.15;;;;;;;12.44;41.94;102257.41;5096174;28;20048;-56
2022/03/26 08:50:30;;;;;;;55.20;32.20;;;;;;;12.31;41.78;102255.28;5096432;28;20044;-56
2022/03/26 08:52:58;;;;;;;55.05;32.05;;;;;;;12.53;41.38;102260.38;5096112;28;20044;-62
2022/03/26 08:55:26;;;;;;;54.50;30.60;;;;;;;12.68;40.98;102257.47;5093826;28;20056;-62
2022/03/26 08:57:54;;;;;;;50.35;31.00;;;;;;;12.60;41.14;102264.47;5094806;28;20048;-62
2022/03/26 09:00:21;;;;;;;56.50;31.65;;;;;;;12.62;41.28;102256.72;5094438;28;20056;-62
2022/03/26 09:02:49;;;;;;;53.55;29.77;;;;;;;12.70;40.97;102267.13;5096020;28;20047;-62
2022/03/26 09:05:17;;;;;;;54.80;31.23;;;;;;;13.16;40.39;102259.25;5094840;28;20047;-61
2022/03/26 09:07:44;;;;;;;50.88;30.98;;;;;;;13.25;39.71;102263.81;5094257;28;20063;-62
2022/03/26 09:10:12;;;;;;;60.22;31.25;;;;;;;12.86;39.60;102259.53;5096174;28;20537;-63
2022/03/26 09:12:39;;;;;;;58.75;30.17;;;;;;;12.91;39.51;102259.47;5095905;28;20040;-61
2022/03/26 09:15:07;;;;;;;52.95;29.00;;;;;;;13.04;38.88;102251.34;5078558;28;20056;-62
2022/03/26 09:17:36;;;;;;;55.22;29.20;;;;;;;13.19;38.69;102256.72;5075054;28;20052;-62
2022/03/26 09:20:04;;;;;;;48.60;29.63;;;;;;;13.16;38.62;102256.47;5074170;28;20052;-63
2022/03/26 09:22:32;;;;;;;49.58;29.60;;;;;;;13.15;38.92;102258.41;5075271;28;20044;-61
2022/03/26 09:25:01;;;;;;;62.42;31.13;;;;;;;13.26;38.46;102254.44;5074121;28;20052;-62
2022/03/26 09:27:28;;;;;;;53.70;30.63;;;;;;;13.31;38.43;102257.13;5075104;28;20503;-62
2022/03/26 09:29:56;;;;;;;56.50;29.55;;;;;;;13.32;38.23;102256.00;5075104;28;20376;-63
2022/03/26 09:32:23;;;;;;;53.28;29.70;;;;;;;13.58;38.06;102254.56;5075205;28;20048;-61
2022/03/26 09:34:51;;;;;;;51.67;30.23;;;;;;;13.69;37.78;102255.28;5075024;28;20049;-62
2022/03/26 09:37:18;;;;;;;50.78;29.65;;;;;;;13.29;38.45;102255.75;5074541;28;20055;-62
2022/03/26 09:39:45;;;;;;;53.92;29.88;;;;;;;13.52;38.36;102244.69;5075320;28;20057;-61
2022/03/26 09:42:14;;;;;;;53.17;29.63;;;;;;;13.65;37.85;102256.97;5089352;28;20048;-63
2022/03/26 09:44:41;;;;;;;50.90;29.17;;;;;;;13.60;37.83;102253.47;5095235;28;20415;-62
2022/03/26 09:47:10;;;;;;;54.00;29.80;;;;;;;13.69;37.78;102251.66;5093685;28;20412;-61
2022/03/26 09:49:38;;;;;;;57.65;31.88;;;;;;;13.60;37.88;102247.94;5095363;28;20047;-62
2022/03/26 09:52:06;;;;;;;52.60;29.73;;;;;;;13.74;37.67;102252.44;5093404;28;20048;-63
2022/03/26 09:54:36;;;;;;;53.80;30.95;;;;;;;13.96;37.17;102246.31;5095513;28;20052;-61
2022/03/26 09:57:04;;;;;;;47.70;29.67;;;;;;;13.93;37.35;102253.28;5094547;28;20063;-63
2022/03/26 09:59:31;;;;;;;50.65;30.48;;;;;;;13.99;37.32;102238.25;5094027;28;20052;-63
2022/03/26 10:01:59;;;;;;;54.67;31.20;;;;;;;14.13;37.26;102239.13;5093070;28;20136;-61
2022/03/26 10:04:38;;;;;;;57.05;31.17;;;;;;;14.56;36.60;102243.44;5094187;28;20066;-63
2022/03/26 10:07:07;;;;;;;51.80;29.90;;;;;;;14.73;36.34;102242.06;5094138;28;20048;-62
2022/03/26 10:09:38;;;;;;;50.50;30.40;;;;;;;14.49;36.23;102243.00;5095223;28;20665;-61
2022/03/26 10:12:08;;;;;;;58.88;31.42;;;;;;;14.46;36.53;102234.47;5095065;28;20047;-62
2022/03/26 10:14:36;;;;;;;58.17;30.85;;;;;;;14.81;36.18;102239.41;5082054;28;20051;-62
2022/03/26 10:17:09;;;;;;;52.75;30.45;;;;;;;14.71;36.34;102234.06;5072407;28;20059;-63
2022/03/26 10:19:41;;;;;;;55.65;31.33;;;;;;;14.83;35.96;102241.88;5074600;28;20049;-62
2022/03/26 10:22:27;;;;;;;54.35;30.38;;;;;;;14.92;36.01;102237.28;5073478;28;20053;-62
2022/03/26 10:24:57;;;;;;;52.17;31.67;;;;;;;14.78;36.00;102234.50;5074789;28;20049;-61
2022/03/26 10:27:24;;;;;;;51.55;31.30;;;;;;;14.81;35.73;102239.41;5074576;28;20071;-62
2022/03/26 10:29:59;;;;;;;62.58;31.65;;;;;;;14.94;35.77;102235.03;5070130;28;20060;-62
2022/03/26 10:32:41;;;;;;;55.78;32.95;;;;;;;15.04;35.30;102237.59;5054457;28;20049;-62
2022/03/26 10:35:15;;;;;;;56.70;31.90;;;;;;;15.06;35.11;102235.34;5059523;28;20060;-63
2022/03/26 10:37:47;;;;;;;47.92;31.48;;;;;;;15.24;35.00;102237.19;5074038;28;20528;-61
2022/03/26 10:40:23;;;;;;;55.22;32.15;;;;;;;15.32;34.88;102230.94;5074471;28;20048;-62
2022/03/26 10:42:57;;;;;;;50.80;31.02;;;;;;;15.33;34.29;102224.25;5093921;28;20051;-62
2022/03/26 10:45:25;;;;;;;57.70;30.63;;;;;;;15.54;33.98;102225.50;5094426;28;20062;-62
2022/03/26 10:47:54;;;;;;;52.22;31.83;;;;;;;15.45;33.97;102221.81;5094197;28;20052;-56
2022/03/26 10:50:23;;;;;;;48.50;31.10;;;;;;;15.60;33.95;102215.94;5094700;28;20456;-60
2022/03/26 10:52:55;;;;;;;52.92;30.05;;;;;;;15.82;33.62;102212.38;5094478;28;20054;-56
2022/03/26 10:55:23;;;;;;;57.97;32.72;;;;;;;15.83;33.30;102214.84;5093392;28;20056;-61
2022/03/26 10:57:50;;;;;;;58.75;33.97;;;;;;;15.86;33.20;102213.41;5094443;28;20056;-56
2022/03/26 11:00:20;;;;;;;57.03;34.03;;;;;;;15.90;33.15;102214.44;5094574;28;20059;-57
2022/03/26 11:02:48;;;;;;;52.50;32.17;;;;;;;15.92;33.11;102209.41;5094321;28;20052;-58
2022/03/26 11:05:15;;;;;;;51.45;32.72;;;;;;;16.07;32.92;102206.25;5094423;28;20075;-57
2022/03/26 11:07:43;;;;;;;51.55;32.38;;;;;;;16.16;32.49;102210.75;5093833;28;20048;-57
2022/03/26 11:10:13;;;;;;;51.83;31.35;;;;;;;16.15;32.53;102203.53;5094327;28;20059;-56
2022/03/26 11:12:47;;;;;;;57.53;32.40;;;;;;;16.23;32.32;102200.00;5093084;28;20058;-58
2022/03/26 11:15:34;;;;;;;53.65;32.42;;;;;;;16.41;32.00;102196.22;5074424;28;20076;-58